createdAt,value
2022-07-30T00:00:38.825Z,99034.38
2022-07-30T00:03:07.281Z,99025.13
2022-07-30T00:05:35.786Z,99026.38
2022-07-30T00:08:04.443Z,99028.38
2022-07-30T00:10:32.891Z,99017.13
2022-07-30T00:13:02.642Z,99025.50
2022-07-30T00:15:31.167Z,99021.41
2022-07-30T00:17:59.547Z,99023.78
2022-07-30T00:20:28.928Z,99020.16
2022-07-30T00:22:57.664Z,99022.97
2022-07-30T00:25:26.265Z,99021.75
2022-07-30T00:27:54.660Z,99021.75
2022-07-30T00:30:24.673Z,99020.16
2022-07-30T00:32:53.355Z,99016.53
2022-07-30T00:35:21.720Z,99002.03
2022-07-30T00:37:50.070Z,98992.72
2022-07-30T00:40:18.760Z,98993.81
2022-07-30T00:42:48.750Z,98994.81
2022-07-30T00:45:19.703Z,98978.50
2022-07-30T00:47:49.547Z,98973.09
2022-07-30T00:50:18.536Z,98978.97
2022-07-30T00:52:47.552Z,98969.59
2022-07-30T00:55:16.926Z,98971.81
2022-07-30T00:57:45.952Z,98971.72
2022-07-30T01:00:17.981Z,98966.00
2022-07-30T01:02:49.226Z,98962.38
2022-07-30T01:05:17.812Z,98961.09
2022-07-30T01:07:46.449Z,98949.09
2022-07-30T01:10:16.957Z,98945.38
2022-07-30T01:12:47.939Z,98940.50
2022-07-30T01:15:17.211Z,98935.59
2022-07-30T01:17:50.756Z,98937.13
2022-07-30T01:20:28.714Z,98943.56
2022-07-30T01:23:08.290Z,98943.56
2022-07-30T01:25:57.125Z,98937.13
2022-07-30T01:28:31.530Z,98941.94
2022-07-30T01:31:01.657Z,98946.38
2022-07-30T01:33:32.915Z,98943.56
2022-07-30T01:36:02.924Z,98942.75
2022-07-30T01:38:35.591Z,98944.66
2022-07-30T01:41:06.593Z,98965.09
2022-07-30T01:43:37.205Z,98951.88
2022-07-30T01:46:07.127Z,98970.34
2022-07-30T01:48:40.711Z,98967.53
2022-07-30T01:51:11.165Z,98966.38
2022-07-30T01:53:41.795Z,98973.97
2022-07-30T01:56:16.670Z,98973.97
2022-07-30T01:58:48.105Z,98971.97
2022-07-30T02:01:16.893Z,98980.00
2022-07-30T02:03:47.864Z,98985.63
2022-07-30T02:06:23.182Z,98977.59
2022-07-30T02:08:56.494Z,98976.38
2022-07-30T02:11:44.331Z,98977.22
2022-07-30T02:14:23.776Z,98970.78
2022-07-30T02:16:58.701Z,98969.25
2022-07-30T02:19:34.587Z,98972.06
2022-07-30T02:22:08.672Z,98963.28
2022-07-30T02:24:39.916Z,98969.69
2022-07-30T02:27:19.352Z,98965.19
2022-07-30T02:29:49.776Z,98964.00
2022-07-30T02:32:23.047Z,98969.50
2022-07-30T02:35:03.085Z,98969.44
2022-07-30T02:37:43.723Z,98953.44
2022-07-30T02:40:17.402Z,98955.31
2022-07-30T02:42:50.338Z,98961.28
2022-07-30T02:45:19.766Z,98954.84
2022-07-30T02:47:52.814Z,98954.78
2022-07-30T02:50:23.163Z,98943.91
2022-07-30T02:52:52.802Z,98949.41
2022-07-30T02:55:23.485Z,98948.53
2022-07-30T02:57:56.389Z,98943.16
2022-07-30T03:00:26.573Z,98942.25
2022-07-30T03:02:57.264Z,98949.41
2022-07-30T03:05:27.650Z,98950.94
2022-07-30T03:07:58.959Z,98944.03
2022-07-30T03:10:28.905Z,98945.19
2022-07-30T03:13:00.512Z,98950.34
2022-07-30T03:15:30.141Z,98949.19
2022-07-30T03:17:59.563Z,98953.28
2022-07-30T03:20:31.998Z,98950.09
2022-07-30T03:23:02.828Z,98951.84
2022-07-30T03:25:33.839Z,98957.53
2022-07-30T03:28:07.088Z,98971.66
2022-07-30T03:30:36.454Z,98970.56
2022-07-30T03:33:06.528Z,98982.69
2022-07-30T03:35:35.712Z,98976.75
2022-07-30T03:38:06.860Z,98983.97
2022-07-30T03:40:35.981Z,98972.75
2022-07-30T03:43:06.265Z,98978.81
2022-07-30T03:45:55.859Z,98979.72
2022-07-30T03:48:24.713Z,98987.78
2022-07-30T03:50:54.639Z,98979.38
2022-07-30T03:53:25.103Z,98988.84
2022-07-30T03:55:54.373Z,98992.00
2022-07-30T03:58:24.393Z,98982.16
2022-07-30T04:00:52.992Z,98989.53
2022-07-30T04:03:28.419Z,98987.59
2022-07-30T04:05:57.008Z,98993.41
2022-07-30T04:08:25.903Z,98994.84
2022-07-30T04:10:54.436Z,98977.00
2022-07-30T04:13:24.167Z,98995.94
2022-07-30T04:16:37.539Z,98993.31
2022-07-30T04:18:54.471Z,98993.09
2022-07-30T04:21:26.942Z,99004.16
2022-07-30T04:24:03.108Z,99002.09
2022-07-30T04:26:36.938Z,99005.22
2022-07-30T04:29:16.580Z,99003.94
2022-07-30T04:31:47.174Z,99007.19
2022-07-30T04:34:16.858Z,99007.19
2022-07-30T04:36:45.604Z,99004.88
2022-07-30T04:39:14.347Z,99016.09
2022-07-30T04:41:48.466Z,99013.75
2022-07-30T04:44:20.143Z,99011.72
2022-07-30T04:46:48.987Z,99010.13
2022-07-30T04:49:19.210Z,99005.81
2022-07-30T04:51:49.817Z,99003.00
2022-07-30T04:54:19.229Z,99012.69
2022-07-30T04:56:53.378Z,99015.47
2022-07-30T04:59:26.441Z,99011.41
2022-07-30T05:01:57.474Z,99017.09
2022-07-30T05:04:27.496Z,99023.50
2022-07-30T05:06:58.375Z,99027.59
2022-07-30T05:09:28.216Z,99025.72
2022-07-30T05:11:57.855Z,99023.03
2022-07-30T05:14:28.917Z,99029.91
2022-07-30T05:16:57.540Z,99028.03
2022-07-30T05:19:26.074Z,99027.66
2022-07-30T05:21:54.764Z,99034.09
2022-07-30T05:24:23.209Z,99034.56
2022-07-30T05:26:51.813Z,99034.19
2022-07-30T05:29:20.430Z,99035.47
2022-07-30T05:31:50.597Z,99043.06
2022-07-30T05:34:19.372Z,99050.66
2022-07-30T05:36:47.778Z,99057.09
2022-07-30T05:39:16.617Z,99059.53
2022-07-30T05:41:45.096Z,99065.59
2022-07-30T05:44:13.630Z,99065.72
2022-07-30T05:46:42.099Z,99074.19
2022-07-30T05:49:11.941Z,99077.91
2022-07-30T05:51:40.423Z,99076.88
2022-07-30T05:54:09.739Z,99084.22
2022-07-30T05:56:38.160Z,99089.13
2022-07-30T05:59:06.558Z,99091.22
2022-07-30T06:01:34.974Z,99098.00
2022-07-30T06:04:03.524Z,99094.28
2022-07-30T06:06:33.305Z,99094.06
2022-07-30T06:09:01.689Z,99094.63
2022-07-30T06:11:30.156Z,99095.09
2022-07-30T06:13:58.638Z,99102.38
2022-07-30T06:16:27.074Z,99096.78
2022-07-30T06:18:55.487Z,99095.63
2022-07-30T06:21:23.898Z,99094.00
2022-07-30T06:23:53.650Z,99084.28
2022-07-30T06:26:22.389Z,99091.13
2022-07-30T06:28:50.752Z,99088.91
2022-07-30T06:31:19.446Z,99090.31
2022-07-30T06:33:47.872Z,99087.38
2022-07-30T06:36:16.297Z,99094.84
2022-07-30T06:38:44.748Z,99093.91
2022-07-30T06:41:15.846Z,99088.19
2022-07-30T06:43:44.413Z,99083.31
2022-07-30T06:46:12.818Z,99086.31
2022-07-30T06:48:42.447Z,99084.56
2022-07-30T06:51:10.957Z,99079.66
2022-07-30T06:53:42.479Z,99081.97
2022-07-30T06:56:11.493Z,99080.31
2022-07-30T06:58:41.373Z,99083.84
2022-07-30T07:01:11.335Z,99085.44
2022-07-30T07:03:40.844Z,99083.00
2022-07-30T07:06:09.918Z,99082.19
2022-07-30T07:08:38.995Z,99083.00
2022-07-30T07:11:07.497Z,99080.69
2022-07-30T07:13:35.939Z,99086.75
2022-07-30T07:16:06.484Z,99089.53
2022-07-30T07:18:34.871Z,99084.09
2022-07-30T07:21:03.263Z,99091.44
2022-07-30T07:23:39.035Z,99091.91
2022-07-30T07:26:12.220Z,99086.78
2022-07-30T07:28:41.492Z,99084.91
2022-07-30T07:32:06.359Z,99088.53
2022-07-30T07:34:01.273Z,99084.22
2022-07-30T07:36:29.806Z,99083.88
2022-07-30T07:38:58.227Z,99078.75
2022-07-30T07:41:26.978Z,99083.19
2022-07-30T07:43:55.343Z,99078.75
2022-07-30T07:46:33.402Z,99078.41
2022-07-30T07:49:02.642Z,99082.97
2022-07-30T07:51:46.818Z,99082.63
2022-07-30T07:54:22.150Z,99076.66
2022-07-30T07:56:53.307Z,99076.81
2022-07-30T07:59:21.894Z,99076.22
2022-07-30T08:01:52.750Z,99076.47
2022-07-30T08:04:21.154Z,99075.88
2022-07-30T08:06:49.622Z,99068.09
2022-07-30T08:09:18.015Z,99072.75
2022-07-30T08:11:46.440Z,99075.34
2022-07-30T08:14:14.925Z,99075.94
2022-07-30T08:16:43.424Z,99070.44
2022-07-30T08:19:13.308Z,99068.53
2022-07-30T08:21:41.717Z,99065.16
2022-07-30T08:24:10.263Z,99059.78
2022-07-30T08:26:38.859Z,99074.00
2022-07-30T08:29:07.653Z,99063.38
2022-07-30T08:31:35.996Z,99067.56
2022-07-30T08:34:04.396Z,99070.94
2022-07-30T08:36:34.200Z,99074.28
2022-07-30T08:39:02.677Z,99070.59
2022-07-30T08:41:31.906Z,99074.44
2022-07-30T08:44:02.276Z,99077.88
2022-07-30T08:46:33.342Z,99077.72
2022-07-30T08:49:09.111Z,99067.63
2022-07-30T08:51:41.070Z,99072.28
2022-07-30T08:54:09.496Z,99071.22
2022-07-30T08:56:38.191Z,99068.03
2022-07-30T08:59:06.835Z,99062.06
2022-07-30T09:01:35.262Z,99067.66
2022-07-30T09:06:38.469Z,99072.13
2022-07-30T09:09:08.379Z,99061.72
2022-07-30T09:11:37.005Z,99063.34
2022-07-30T09:14:14.021Z,99056.13
2022-07-30T09:16:43.235Z,99063.00
2022-07-30T09:19:18.061Z,99056.94
2022-07-30T09:21:58.919Z,99047.69
2022-07-30T09:24:29.657Z,99046.97
2022-07-30T09:27:01.015Z,99050.13
2022-07-30T09:29:31.361Z,99046.50
2022-07-30T09:32:02.929Z,99035.28
2022-07-30T09:34:34.100Z,99046.06
2022-07-30T09:37:05.843Z,99035.56
2022-07-30T09:39:38.497Z,99035.91
2022-07-30T09:42:19.751Z,99038.97
2022-07-30T09:44:49.415Z,99041.06
2022-07-30T09:47:32.585Z,99044.34
2022-07-30T09:50:07.915Z,99035.28
2022-07-30T09:52:37.172Z,99041.91
2022-07-30T09:55:15.869Z,99040.97
2022-07-30T09:57:58.913Z,99037.28
2022-07-30T10:00:30.083Z,99034.38
2022-07-30T10:03:00.705Z,99029.75
2022-07-30T10:05:50.263Z,99037.63
2022-07-30T10:08:21.958Z,99023.78
2022-07-30T10:10:52.026Z,99030.50
2022-07-30T10:13:21.812Z,99028.81
2022-07-30T10:15:51.440Z,99022.72
2022-07-30T10:18:20.033Z,99025.41
2022-07-30T10:20:50.327Z,99032.53
2022-07-30T10:23:27.031Z,99023.63
2022-07-30T10:25:58.344Z,99014.66
2022-07-30T10:28:28.535Z,99009.00
2022-07-30T10:30:59.954Z,99009.38
2022-07-30T10:33:34.851Z,99000.84
2022-07-30T10:36:06.446Z,99000.53
2022-07-30T10:38:42.943Z,99007.47
2022-07-30T10:41:43.194Z,99005.81
2022-07-30T10:44:46.085Z,99005.63
2022-07-30T10:47:18.698Z,99010.84
2022-07-30T10:50:14.557Z,99014.47
2022-07-30T10:52:51.592Z,99007.22
2022-07-30T10:55:37.050Z,99010.38
2022-07-30T10:58:11.064Z,99008.22
2022-07-30T11:01:00.661Z,99009.09
2022-07-30T11:03:40.602Z,99005.03
2022-07-30T11:06:30.423Z,99011.50
2022-07-30T11:08:59.218Z,99012.41
2022-07-30T11:12:01.920Z,99008.75
2022-07-30T11:15:06.745Z,99010.75
2022-07-30T11:18:11.328Z,99005.16
2022-07-30T11:20:43.156Z,98997.66
2022-07-30T11:23:43.114Z,98999.41
2022-07-30T11:26:14.190Z,98985.41
2022-07-30T11:28:49.561Z,98982.25
2022-07-30T11:31:55.617Z,98988.41
2022-07-30T11:34:29.868Z,98980.00
2022-07-30T11:37:22.115Z,98984.91
2022-07-30T11:40:11.465Z,98979.69
2022-07-30T11:42:42.641Z,98986.56
2022-07-30T11:45:29.794Z,98991.03
2022-07-30T11:48:01.383Z,98982.53
2022-07-30T11:50:33.055Z,98971.19
2022-07-30T11:53:05.025Z,98979.31
2022-07-30T11:55:37.086Z,98971.19
2022-07-30T11:58:09.329Z,98963.09
2022-07-30T12:00:40.850Z,98978.38
2022-07-30T12:03:13.506Z,98975.94
2022-07-30T12:05:43.153Z,98969.88
2022-07-30T12:08:35.355Z,98971.91
2022-07-30T12:11:02.874Z,98971.53
2022-07-30T12:13:45.430Z,98973.97
2022-07-30T12:16:17.596Z,98967.50
2022-07-30T12:18:48.935Z,98973.16
2022-07-30T12:21:17.732Z,98965.84
2022-07-30T12:23:56.540Z,98965.44
2022-07-30T12:26:27.385Z,98965.03
2022-07-30T12:28:57.790Z,98965.78
2022-07-30T12:31:26.839Z,98967.78
2022-07-30T12:33:59.053Z,98957.66
2022-07-30T12:36:31.856Z,98953.63
2022-07-30T12:39:01.803Z,98949.59
2022-07-30T12:41:44.895Z,98949.63
2022-07-30T12:44:37.560Z,98944.41
2022-07-30T12:47:07.845Z,98940.78
2022-07-30T12:49:48.973Z,98946.09
2022-07-30T12:52:28.130Z,98940.84
2022-07-30T12:55:02.957Z,98935.94
2022-07-30T12:57:54.615Z,98936.69
2022-07-30T13:00:24.378Z,98924.09
2022-07-30T13:02:52.921Z,98935.84
2022-07-30T13:05:42.813Z,98922.09
2022-07-30T13:08:11.287Z,98928.97
2022-07-30T13:10:39.976Z,98931.44
2022-07-30T13:13:08.485Z,98923.34
2022-07-30T13:15:36.857Z,98922.97
2022-07-30T13:18:08.175Z,98932.28
2022-07-30T13:20:37.946Z,98921.78
2022-07-30T13:23:06.649Z,98924.59
2022-07-30T13:25:38.577Z,98927.81
2022-07-30T13:28:07.403Z,98920.16
2022-07-30T13:30:35.781Z,98914.91
2022-07-30T13:33:04.305Z,98904.00
2022-07-30T13:35:32.724Z,98918.16
2022-07-30T13:38:02.653Z,98912.91
2022-07-30T13:40:32.202Z,98906.44
2022-07-30T13:43:00.734Z,98902.81
2022-07-30T13:45:29.524Z,98896.31
2022-07-30T13:47:58.130Z,98886.59
2022-07-30T13:50:27.122Z,98878.09
2022-07-30T13:53:01.830Z,98880.09
2022-07-30T13:55:32.259Z,98865.94
2022-07-30T13:58:01.466Z,98880.84
2022-07-30T14:00:32.585Z,98871.06
2022-07-30T14:03:02.909Z,98878.25
2022-07-30T14:05:33.253Z,98875.28
2022-07-30T14:08:01.835Z,98871.66
2022-07-30T14:10:32.681Z,98877.28
2022-07-30T14:13:01.390Z,98863.59
2022-07-30T14:15:31.864Z,98868.44
2022-07-30T14:18:01.846Z,98863.31
2022-07-30T14:20:30.496Z,98862.53
2022-07-30T14:22:59.675Z,98875.56
2022-07-30T14:25:28.126Z,98879.28
2022-07-30T14:27:57.910Z,98875.28
2022-07-30T14:30:26.460Z,98880.13
2022-07-30T14:33:00.405Z,98887.03
2022-07-30T14:35:31.369Z,98892.72
2022-07-30T14:37:59.763Z,98892.28
2022-07-30T14:40:28.185Z,98878.94
2022-07-30T14:42:58.151Z,98880.94
2022-07-30T14:45:26.857Z,98879.28
2022-07-30T14:47:57.717Z,98870.69
2022-07-30T14:50:26.194Z,98863.09
2022-07-30T14:52:54.588Z,98865.00
2022-07-30T14:55:23.005Z,98854.19
2022-07-30T14:57:51.422Z,98856.66
2022-07-30T15:00:21.402Z,98857.41
2022-07-30T15:02:52.903Z,98864.69
2022-07-30T15:05:21.401Z,98856.69
2022-07-30T15:07:49.807Z,98871.28
2022-07-30T15:10:18.489Z,98870.34
2022-07-30T15:12:46.930Z,98876.25
2022-07-30T15:15:16.549Z,98863.44
2022-07-30T15:17:47.434Z,98882.56
2022-07-30T15:20:15.798Z,98887.03
2022-07-30T15:22:44.221Z,98877.28
2022-07-30T15:25:12.658Z,98874.03
2022-07-30T15:27:41.191Z,98876.47
2022-07-30T15:30:10.549Z,98884.97
2022-07-30T15:32:38.998Z,98874.84
2022-07-30T15:35:13.466Z,98871.59
2022-07-30T15:37:42.566Z,98871.22
2022-07-30T15:40:11.704Z,98876.88
2022-07-30T15:42:40.379Z,98873.22
2022-07-30T15:45:18.485Z,98874.44
2022-07-30T15:47:47.677Z,98881.31
2022-07-30T15:50:18.245Z,98873.63
2022-07-30T15:52:46.853Z,98878.09
2022-07-30T15:55:15.254Z,98882.13
2022-07-30T15:57:44.430Z,98879.72
2022-07-30T16:00:14.308Z,98872.03
2022-07-30T16:02:43.592Z,98866.38
2022-07-30T16:05:14.164Z,98872.84
2022-07-30T16:07:44.931Z,98878.50
2022-07-30T16:10:13.334Z,98880.94
2022-07-30T16:12:42.127Z,98878.50
2022-07-30T16:15:11.727Z,98884.19
2022-07-30T16:17:40.213Z,98891.44
2022-07-30T16:20:10.747Z,98892.66
2022-07-30T16:22:39.199Z,98900.31
2022-07-30T16:25:10.005Z,98899.06
2022-07-30T16:27:38.318Z,98921.63
2022-07-30T16:30:08.099Z,98929.22
2022-07-30T16:32:36.671Z,98943.53
2022-07-30T16:35:07.011Z,98971.16
2022-07-30T16:37:37.723Z,98970.78
2022-07-30T16:40:09.184Z,98978.53
2022-07-30T16:42:37.630Z,98998.31
2022-07-30T16:45:07.723Z,98993.41
2022-07-30T16:47:36.114Z,99000.66
2022-07-30T16:50:04.836Z,98994.19
2022-07-30T16:52:33.215Z,98990.16
2022-07-30T16:55:01.608Z,98978.16
2022-07-30T16:57:31.344Z,98971.84
2022-07-30T16:59:59.725Z,98972.84
2022-07-30T17:02:28.418Z,98979.59
2022-07-30T17:04:56.821Z,98976.78
2022-07-30T17:07:25.350Z,98971.16
2022-07-30T17:09:53.994Z,98973.97
2022-07-30T17:12:23.309Z,98990.50
2022-07-30T17:14:55.468Z,98981.25
2022-07-30T17:17:23.840Z,98990.50
2022-07-30T17:19:52.416Z,98990.94
2022-07-30T17:22:20.848Z,98986.91
2022-07-30T17:24:49.346Z,98978.47
2022-07-30T17:27:17.777Z,98978.06
2022-07-30T17:29:50.160Z,98978.00
2022-07-30T17:32:20.735Z,98977.47
2022-07-30T17:34:49.652Z,98978.59
2022-07-30T17:37:18.460Z,98980.88
2022-07-30T17:40:27.715Z,98976.75
2022-07-30T17:42:35.751Z,98984.31
2022-07-30T17:45:05.460Z,98986.25
2022-07-30T17:47:35.198Z,98989.38
2022-07-30T17:50:03.697Z,98981.66
2022-07-30T17:52:32.089Z,98986.41
2022-07-30T17:55:00.563Z,98997.56
2022-07-30T17:57:28.975Z,98986.69
2022-07-30T17:59:57.900Z,98999.50
2022-07-30T18:02:28.815Z,99009.00
2022-07-30T18:04:59.016Z,99005.66
2022-07-30T18:07:28.234Z,99003.16
2022-07-30T18:09:56.570Z,99011.06
2022-07-30T18:12:25.018Z,99021.41
2022-07-30T18:14:53.431Z,99027.75
2022-07-30T18:17:21.824Z,99017.34
2022-07-30T18:19:50.372Z,99027.38
2022-07-30T18:22:27.527Z,99039.09
2022-07-30T18:25:00.386Z,99038.72
2022-07-30T18:27:29.931Z,99040.31
2022-07-30T18:29:58.503Z,99040.31
2022-07-30T18:32:26.917Z,99034.72
2022-07-30T18:34:55.324Z,99038.34
2022-07-30T18:37:25.071Z,99032.28
2022-07-30T18:40:11.426Z,99018.16
2022-07-30T18:42:39.837Z,99017.25
2022-07-30T18:45:10.454Z,99014.22
2022-07-30T18:47:38.907Z,99015.59
2022-07-30T18:50:09.411Z,99015.34
2022-07-30T18:52:39.710Z,99016.25
2022-07-30T18:55:11.430Z,99020.41
2022-07-30T18:57:40.050Z,99023.88
2022-07-30T19:00:34.044Z,99021.25
2022-07-30T19:03:00.612Z,99019.44
2022-07-30T19:05:29.244Z,99026.13
2022-07-30T19:07:59.229Z,99041.97
2022-07-30T19:10:28.193Z,99042.22
2022-07-30T19:12:57.155Z,99040.50
2022-07-30T19:15:26.168Z,99036.31
2022-07-30T19:17:54.527Z,99042.19
2022-07-30T19:20:23.586Z,99034.50
2022-07-30T19:22:53.350Z,99044.00
2022-07-30T19:25:23.080Z,99049.47
2022-07-30T19:27:51.495Z,99053.00
2022-07-30T19:30:19.981Z,99062.16
2022-07-30T19:32:48.352Z,99060.50
2022-07-30T19:35:16.776Z,99074.06
2022-07-30T19:37:45.316Z,99079.66
2022-07-30T19:40:14.735Z,99082.84
2022-07-30T19:42:44.493Z,99080.03
2022-07-30T19:45:15.301Z,99078.03
2022-07-30T19:47:43.966Z,99069.63
2022-07-30T19:50:15.358Z,99067.19
2022-07-30T19:52:51.289Z,99060.75
2022-07-30T19:55:35.295Z,99049.91
2022-07-30T19:58:16.192Z,99065.91
2022-07-30T20:00:49.268Z,99046.28
2022-07-30T20:03:25.477Z,99053.88
2022-07-30T20:05:59.680Z,99058.69
2022-07-30T20:08:28.806Z,99052.25
2022-07-30T20:10:59.356Z,99047.47
2022-07-30T20:13:43.914Z,99045.81
2022-07-30T20:16:14.735Z,99051.81
2022-07-30T20:18:44.393Z,99054.59
2022-07-30T20:21:15.846Z,99050.16
2022-07-30T20:23:45.482Z,99064.53
2022-07-30T20:26:16.013Z,99048.88
2022-07-30T20:28:52.470Z,99054.50
2022-07-30T20:31:21.256Z,99056.47
2022-07-30T20:33:50.852Z,99052.06
2022-07-30T20:36:19.800Z,99050.06
2022-07-30T20:38:49.412Z,99045.63
2022-07-30T20:41:18.056Z,99053.22
2022-07-30T20:43:52.612Z,99039.94
2022-07-30T20:46:23.811Z,99035.84
2022-07-30T20:48:53.228Z,99039.34
2022-07-30T20:51:21.882Z,99042.06
2022-07-30T20:54:02.537Z,99033.53
2022-07-30T20:56:31.089Z,99038.69
2022-07-30T20:59:00.856Z,99054.22
2022-07-30T21:01:30.776Z,99054.94
2022-07-30T21:03:59.359Z,99048.75
2022-07-30T21:06:27.773Z,99052.72
2022-07-30T21:08:56.848Z,99059.03
2022-07-30T21:11:25.365Z,99043.28
2022-07-30T21:13:55.033Z,99051.22
2022-07-30T21:16:27.268Z,99051.56
2022-07-30T21:18:59.096Z,99061.13
2022-07-30T21:21:28.856Z,99064.31
2022-07-30T21:24:11.897Z,99066.28
2022-07-30T21:26:41.541Z,99066.28
2022-07-30T21:29:10.593Z,99065.50
2022-07-30T21:32:01.579Z,99067.09
2022-07-30T21:34:35.193Z,99061.50
2022-07-30T21:37:08.943Z,99073.53
2022-07-30T21:39:39.651Z,99064.31
2022-07-30T21:42:29.388Z,99074.69
2022-07-30T21:44:59.117Z,99078.66
2022-07-30T21:47:28.888Z,99070.59
2022-07-30T21:49:57.250Z,99075.88
2022-07-30T21:52:28.142Z,99076.19
2022-07-30T21:54:56.644Z,99080.56
2022-07-30T21:57:26.632Z,99072.47
2022-07-30T21:59:59.433Z,99092.44
2022-07-30T22:02:29.723Z,99091.63
2022-07-30T22:04:59.113Z,99084.75
2022-07-30T22:07:27.641Z,99081.13
2022-07-30T22:09:56.082Z,99086.25
2022-07-30T22:12:25.790Z,99083.81
2022-07-30T22:14:57.233Z,99094.19
2022-07-30T22:17:36.738Z,99084.53
2022-07-30T22:20:11.421Z,99084.88
2022-07-30T22:22:40.785Z,99106.09
2022-07-30T22:25:11.178Z,99088.84
2022-07-30T22:27:56.041Z,99084.75
2022-07-30T22:30:27.712Z,99080.34
2022-07-30T22:32:56.599Z,99093.06
2022-07-30T22:35:33.675Z,99085.34
2022-07-30T22:38:03.348Z,99086.88
2022-07-30T22:40:32.201Z,99095.63
2022-07-30T22:43:04.283Z,99098.66
2022-07-30T22:45:49.226Z,99100.88
2022-07-30T22:48:21.575Z,99099.94
2022-07-30T22:50:57.269Z,99107.84
2022-07-30T22:54:10.435Z,99112.84
2022-07-30T22:56:20.228Z,99109.47
2022-07-30T22:58:52.511Z,99113.75
2022-07-30T23:01:20.819Z,99118.44
2022-07-30T23:03:51.345Z,99111.53
2022-07-30T23:06:21.097Z,99117.16
2022-07-30T23:08:50.581Z,99122.38
2022-07-30T23:11:18.951Z,99122.84
2022-07-30T23:13:49.183Z,99106.88
2022-07-30T23:16:17.579Z,99116.09
2022-07-30T23:18:45.952Z,99097.81
2022-07-30T23:21:15.071Z,99102.22
2022-07-30T23:23:45.026Z,99102.22
2022-07-30T23:26:13.456Z,99111.09
2022-07-30T23:28:41.856Z,99102.34
2022-07-30T23:31:10.277Z,99102.34
2022-07-30T23:33:38.729Z,99105.97
2022-07-30T23:36:10.237Z,99118.22
2022-07-30T23:38:38.920Z,99121.69
2022-07-30T23:41:08.734Z,99124.84
2022-07-30T23:43:37.980Z,99119.13
2022-07-30T23:46:09.702Z,99119.00
2022-07-30T23:48:39.521Z,99118.53
2022-07-30T23:51:07.954Z,99109.19
2022-07-30T23:53:36.354Z,99122.72
2022-07-30T23:56:05.319Z,99109.44
2022-07-30T23:58:35.364Z,99105.69
